createdAt,value
2022-09-07T00:00:17.368Z,30.018
2022-09-07T00:05:17.435Z,30.020
2022-09-07T00:10:17.263Z,30.021
2022-09-07T00:15:17.394Z,30.023
2022-09-07T00:20:17.106Z,30.023
2022-09-07T00:25:17.574Z,30.024
2022-09-07T00:30:17.830Z,30.026
2022-09-07T00:35:17.247Z,30.027
2022-09-07T00:40:17.390Z,30.031
2022-09-07T00:45:17.663Z,30.032
2022-09-07T00:50:17.135Z,30.030
2022-09-07T00:55:17.821Z,30.029
2022-09-07T01:00:17.344Z,30.032
2022-09-07T01:05:17.300Z,30.032
2022-09-07T01:10:17.678Z,30.034
2022-09-07T01:15:17.593Z,30.036
2022-09-07T01:20:17.297Z,30.034
2022-09-07T01:25:17.444Z,30.033
2022-09-07T01:30:17.432Z,30.033
2022-09-07T01:35:17.428Z,30.032
2022-09-07T01:40:17.353Z,30.031
2022-09-07T01:45:17.584Z,30.032
2022-09-07T01:50:17.674Z,30.031
2022-09-07T01:55:17.595Z,30.030
2022-09-07T02:00:17.573Z,30.029
2022-09-07T02:05:17.463Z,30.029
2022-09-07T02:10:17.442Z,30.029
2022-09-07T02:15:17.544Z,30.028
2022-09-07T02:20:17.610Z,30.027
2022-09-07T02:25:17.710Z,30.027
2022-09-07T02:30:17.510Z,30.027
2022-09-07T02:35:17.514Z,30.027
2022-09-07T02:40:17.447Z,30.027
2022-09-07T02:45:17.675Z,30.028
2022-09-07T02:50:17.714Z,30.032
2022-09-07T02:55:18.769Z,30.033
2022-09-07T03:00:17.559Z,30.033
2022-09-07T03:05:17.671Z,30.033
2022-09-07T03:10:17.603Z,30.033
2022-09-07T03:15:17.764Z,30.033
2022-09-07T03:20:17.598Z,30.030
2022-09-07T03:25:17.634Z,30.030
2022-09-07T03:30:18.235Z,30.031
2022-09-07T03:35:17.695Z,30.032
2022-09-07T03:40:17.555Z,30.031
2022-09-07T03:45:17.679Z,30.029
2022-09-07T03:50:17.574Z,30.031
2022-09-07T03:55:18.064Z,30.030
2022-09-07T04:00:16.789Z,30.029
2022-09-07T04:05:16.737Z,30.028
2022-09-07T04:10:16.608Z,30.028
2022-09-07T04:15:16.936Z,30.029
2022-09-07T04:20:16.670Z,30.027
2022-09-07T04:25:16.739Z,30.027
2022-09-07T04:30:16.847Z,30.024
2022-09-07T04:35:16.732Z,30.024
2022-09-07T04:40:17.101Z,30.022
2022-09-07T04:45:16.914Z,30.020
2022-09-07T04:50:16.680Z,30.020
2022-09-07T04:55:17.301Z,30.019
2022-09-07T05:00:16.840Z,30.019
2022-09-07T05:05:16.827Z,30.017
2022-09-07T05:10:16.781Z,30.016
2022-09-07T05:15:17.201Z,30.017
2022-09-07T05:20:20.181Z,30.015
2022-09-07T05:25:17.041Z,30.012
2022-09-07T05:31:27.929Z,30.011
2022-09-07T05:35:16.889Z,30.009
2022-09-07T05:40:17.168Z,30.009
2022-09-07T05:45:18.330Z,30.005
2022-09-07T05:50:16.884Z,30.005
2022-09-07T05:55:29.557Z,30.004
2022-09-07T06:00:16.911Z,30.005
2022-09-07T06:05:16.961Z,30.005
2022-09-07T06:10:52.409Z,30.005
2022-09-07T06:15:17.093Z,30.003
2022-09-07T06:20:17.095Z,29.998
2022-09-07T06:25:17.009Z,29.996
2022-09-07T06:30:17.081Z,29.995
2022-09-07T06:35:17.292Z,29.991
2022-09-07T06:40:16.965Z,29.988
2022-09-07T06:45:17.077Z,29.988
2022-09-07T06:50:17.226Z,29.987
2022-09-07T06:55:17.907Z,29.987
2022-09-07T07:00:17.240Z,29.986
2022-09-07T07:05:17.033Z,29.983
2022-09-07T07:10:19.701Z,29.981
2022-09-07T07:15:17.241Z,29.979
2022-09-07T07:20:17.089Z,29.976
2022-09-07T07:25:17.051Z,29.978
2022-09-07T07:30:17.394Z,29.977
2022-09-07T07:35:17.172Z,29.978
2022-09-07T07:40:21.405Z,29.976
2022-09-07T07:46:01.230Z,29.972
2022-09-07T07:50:33.022Z,29.972
2022-09-07T07:55:52.750Z,29.973
2022-09-07T08:00:27.446Z,29.971
2022-09-07T08:05:17.289Z,29.971
2022-09-07T08:10:17.097Z,29.970
2022-09-07T08:15:17.307Z,29.970
2022-09-07T08:20:17.202Z,29.969
2022-09-07T08:25:17.202Z,29.969
2022-09-07T08:30:17.293Z,29.968
2022-09-07T08:35:17.323Z,29.970
2022-09-07T08:40:17.619Z,29.972
2022-09-07T08:45:17.318Z,29.970
2022-09-07T08:50:17.248Z,29.970
2022-09-07T08:55:17.348Z,29.970
2022-09-07T09:00:17.589Z,29.971
2022-09-07T09:05:18.465Z,29.969
2022-09-07T09:10:17.299Z,29.973
2022-09-07T09:15:17.528Z,29.972
2022-09-07T09:20:17.178Z,29.973
2022-09-07T09:25:17.322Z,29.976
2022-09-07T09:30:17.473Z,29.977
2022-09-07T09:35:17.366Z,29.976
2022-09-07T09:40:17.908Z,29.978
2022-09-07T09:45:17.578Z,29.978
2022-09-07T09:52:29.213Z,29.979
2022-09-07T09:55:33.836Z,29.980
2022-09-07T10:00:27.969Z,29.978
2022-09-07T10:05:17.500Z,29.975
2022-09-07T10:10:17.391Z,29.975
2022-09-07T10:15:17.544Z,29.979
2022-09-07T10:20:17.739Z,29.978
2022-09-07T10:25:18.962Z,29.978
2022-09-07T10:30:17.496Z,29.978
2022-09-07T10:35:17.471Z,29.979
2022-09-07T10:40:17.471Z,29.979
2022-09-07T10:45:17.750Z,29.977
2022-09-07T10:50:24.659Z,29.978
2022-09-07T10:55:17.766Z,29.977
2022-09-07T11:00:17.648Z,29.981
2022-09-07T11:05:17.582Z,29.983
2022-09-07T11:10:17.550Z,29.986
2022-09-07T11:15:17.694Z,29.985
2022-09-07T11:20:18.504Z,29.986
2022-09-07T11:25:33.072Z,29.987
2022-09-07T11:30:17.598Z,29.989
2022-09-07T11:35:17.839Z,29.991
2022-09-07T11:40:17.619Z,29.991
2022-09-07T11:45:17.604Z,29.991
2022-09-07T11:50:17.588Z,29.990
2022-09-07T11:55:17.599Z,29.990
2022-09-07T12:00:17.820Z,29.989
2022-09-07T12:05:17.679Z,29.991
2022-09-07T12:10:17.762Z,29.991
2022-09-07T12:15:17.796Z,29.992
2022-09-07T12:20:17.635Z,29.991
2022-09-07T12:25:17.692Z,29.991
2022-09-07T12:30:17.992Z,29.991
2022-09-07T12:35:17.714Z,29.990
2022-09-07T12:40:17.745Z,29.990
2022-09-07T12:45:18.375Z,29.989
2022-09-07T12:50:17.769Z,29.988
2022-09-07T12:55:27.953Z,29.989
2022-09-07T13:00:18.648Z,29.989
2022-09-07T13:05:17.788Z,29.990
2022-09-07T13:10:17.818Z,29.987
2022-09-07T13:15:24.000Z,29.988
2022-09-07T13:20:17.918Z,29.988
2022-09-07T13:25:17.874Z,29.988
2022-09-07T13:30:17.893Z,29.989
2022-09-07T13:35:18.054Z,29.988
2022-09-07T13:40:18.043Z,29.988
2022-09-07T13:45:17.876Z,29.990
2022-09-07T13:50:17.767Z,29.991
2022-09-07T13:55:19.305Z,29.990
2022-09-07T14:00:18.543Z,29.989
2022-09-07T14:05:17.825Z,29.987
2022-09-07T14:10:17.994Z,29.988
2022-09-07T14:15:18.084Z,29.986
2022-09-07T14:20:17.954Z,29.983
2022-09-07T14:25:18.024Z,29.983
2022-09-07T14:30:18.267Z,29.983
2022-09-07T14:35:18.154Z,29.982
2022-09-07T14:40:18.266Z,29.978
2022-09-07T14:45:18.361Z,29.979
2022-09-07T14:50:18.363Z,29.980
2022-09-07T14:55:18.068Z,29.980
2022-09-07T15:00:18.236Z,29.979
2022-09-07T15:05:18.397Z,29.978
2022-09-07T15:10:17.923Z,29.979
2022-09-07T15:15:18.479Z,29.975
2022-09-07T15:20:17.969Z,29.974
2022-09-07T15:25:18.053Z,29.976
2022-09-07T15:30:18.128Z,29.978
2022-09-07T15:35:18.067Z,29.976
2022-09-07T15:40:18.312Z,29.975
2022-09-07T15:45:18.315Z,29.975
2022-09-07T15:50:18.794Z,29.976
2022-09-07T15:55:18.138Z,29.977
2022-09-07T16:00:18.676Z,29.974
2022-09-07T16:05:18.275Z,29.975
2022-09-07T16:10:19.101Z,29.973
2022-09-07T16:15:19.141Z,29.971
2022-09-07T16:20:18.205Z,29.969
2022-09-07T16:25:18.278Z,29.971
2022-09-07T16:30:18.236Z,29.970
2022-09-07T16:35:16.265Z,29.969
2022-09-07T16:40:18.361Z,29.968
2022-09-07T16:46:07.577Z,29.965
2022-09-07T16:50:16.323Z,29.967
2022-09-07T16:55:16.306Z,29.968
2022-09-07T17:00:16.494Z,29.970
2022-09-07T17:05:17.162Z,29.972
2022-09-07T17:10:16.442Z,29.970
2022-09-07T17:15:16.307Z,29.969
2022-09-07T17:20:16.454Z,29.969
2022-09-07T17:25:16.312Z,29.970
2022-09-07T17:30:16.423Z,29.969
2022-09-07T17:35:16.363Z,29.968
2022-09-07T17:40:17.094Z,29.967
2022-09-07T17:45:16.479Z,29.962
2022-09-07T17:50:16.329Z,29.961
2022-09-07T17:55:16.858Z,29.957
2022-09-07T18:00:16.428Z,29.957
2022-09-07T18:05:16.411Z,29.959
2022-09-07T18:10:16.666Z,29.956
2022-09-07T18:15:16.712Z,29.955
2022-09-07T18:20:16.386Z,29.955
2022-09-07T18:25:16.477Z,29.954
2022-09-07T18:30:16.695Z,29.954
2022-09-07T18:35:16.467Z,29.952
2022-09-07T18:40:21.107Z,29.950
2022-09-07T18:45:31.989Z,29.948
2022-09-07T18:50:16.416Z,29.947
2022-09-07T18:55:16.738Z,29.949
2022-09-07T19:00:18.010Z,29.948
2022-09-07T19:05:52.870Z,29.948
2022-09-07T19:10:16.468Z,29.945
2022-09-07T19:15:16.694Z,29.945
2022-09-07T19:20:16.876Z,29.945
2022-09-07T19:25:16.806Z,29.943
2022-09-07T19:30:16.705Z,29.943
2022-09-07T19:35:16.824Z,29.942
2022-09-07T19:40:19.230Z,29.941
2022-09-07T19:45:16.558Z,29.940
2022-09-07T19:50:16.634Z,29.940
2022-09-07T19:55:16.565Z,29.937
2022-09-07T20:00:16.682Z,29.937
2022-09-07T20:05:16.669Z,29.936
2022-09-07T20:10:16.759Z,29.932
2022-09-07T20:15:16.757Z,29.932
2022-09-07T20:20:16.628Z,29.932
2022-09-07T20:25:16.578Z,29.930
2022-09-07T20:30:17.095Z,29.928
2022-09-07T20:35:16.689Z,29.927
2022-09-07T20:40:16.729Z,29.925
2022-09-07T20:45:17.077Z,29.925
2022-09-07T20:50:16.631Z,29.927
2022-09-07T20:55:16.762Z,29.926
2022-09-07T21:00:16.774Z,29.927
2022-09-07T21:05:16.774Z,29.926
2022-09-07T21:10:16.940Z,29.926
2022-09-07T21:15:16.870Z,29.927
2022-09-07T21:20:16.953Z,29.924
2022-09-07T21:25:16.821Z,29.924
2022-09-07T21:30:16.791Z,29.926
2022-09-07T21:35:16.809Z,29.926
2022-09-07T21:40:17.747Z,29.926
2022-09-07T21:45:17.038Z,29.925
2022-09-07T21:50:16.730Z,29.926
2022-09-07T21:55:17.328Z,29.927
2022-09-07T22:00:17.194Z,29.925
2022-09-07T22:05:17.878Z,29.923
2022-09-07T22:10:16.856Z,29.922
2022-09-07T22:15:16.924Z,29.922
2022-09-07T22:20:16.866Z,29.921
2022-09-07T22:25:16.874Z,29.922
2022-09-07T22:30:17.453Z,29.921
2022-09-07T22:35:17.008Z,29.923
2022-09-07T22:40:17.154Z,29.922
2022-09-07T22:45:17.000Z,29.921
2022-09-07T22:50:17.106Z,29.921
2022-09-07T22:55:16.975Z,29.920
2022-09-07T23:00:16.948Z,29.920
2022-09-07T23:05:17.139Z,29.920
2022-09-07T23:10:16.917Z,29.919
2022-09-07T23:15:17.147Z,29.920
2022-09-07T23:20:16.993Z,29.919
2022-09-07T23:25:17.077Z,29.921
2022-09-07T23:30:17.068Z,29.924
2022-09-07T23:35:17.160Z,29.925
2022-09-07T23:40:17.237Z,29.925
2022-09-07T23:45:17.260Z,29.925
2022-09-07T23:50:17.208Z,29.925
2022-09-07T23:55:17.106Z,29.924
